Time;durP1;ratioP1;P1;durP2;ratioP2;P2;SDS_P1;SDS_P2;PMS_P1;PMS_P2;Temp;Humidity;BMP_temperature;BMP_pressure;BME280_temperature;BME280_humidity;BME280_pressure;Samples;Min_cycle;Max_cycle;Signal;HPM_P1;HPM_P2
2023/01/13 00:00:31;;;;;;;5.38;1.40;;;26.00;99.90;;;;;;5083096;28;20221;-85
2023/01/13 00:03:02;;;;;;;5.13;1.30;;;26.10;99.90;;;;;;5084192;28;20221;-85
2023/01/13 00:05:33;;;;;;;3.17;1.40;;;26.20;99.90;;;;;;5086944;28;20192;-85
2023/01/13 00:08:05;;;;;;;5.00;1.23;;;26.20;99.90;;;;;;5088480;28;20198;-84
2023/01/13 00:10:36;;;;;;;6.72;1.30;;;26.20;99.90;;;;;;5087694;28;20223;-85
2023/01/13 00:13:08;;;;;;;3.88;1.42;;;26.20;99.90;;;;;;5083244;28;20651;-86
2023/01/13 00:15:41;;;;;;;3.30;1.10;;;26.20;99.90;;;;;;5081380;28;20195;-86
2023/01/13 00:18:11;;;;;;;3.20;1.33;;;26.30;99.90;;;;;;5082975;28;20286;-86
2023/01/13 00:20:42;;;;;;;5.80;1.48;;;26.30;99.90;;;;;;5091376;28;20195;-86
2023/01/13 00:23:13;;;;;;;3.20;1.30;;;26.50;99.90;;;;;;5095926;28;20211;-86
2023/01/13 00:25:44;;;;;;;6.03;1.20;;;26.70;99.90;;;;;;5080533;28;20285;-85
2023/01/13 00:28:16;;;;;;;4.55;1.20;;;26.70;99.90;;;;;;5081792;28;20219;-87
2023/01/13 00:30:49;;;;;;;7.88;1.40;;;26.80;99.90;;;;;;5082315;28;20700;-87
2023/01/13 00:33:20;;;;;;;2.72;1.02;;;26.80;99.90;;;;;;5075867;28;20192;-86
2023/01/13 00:35:59;;;;;;;4.40;1.33;;;26.70;99.90;;;;;;5076311;28;20698;-86
2023/01/13 00:38:32;;;;;;;4.85;1.20;;;26.70;99.90;;;;;;5080556;28;20290;-87
2023/01/13 00:41:04;;;;;;;7.88;1.80;;;26.60;99.90;;;;;;5075774;28;20202;-90
2023/01/13 00:43:34;;;;;;;3.05;1.10;;;26.60;99.90;;;;;;5075322;28;20246;-86
2023/01/13 00:46:08;;;;;;;3.38;1.10;;;26.60;99.90;;;;;;5083681;28;20587;-86
2023/01/13 00:48:39;;;;;;;5.35;1.20;;;26.60;99.90;;;;;;5078375;28;20198;-88
2023/01/13 00:51:15;;;;;;;4.10;1.30;;;26.70;99.90;;;;;;5083267;28;20409;-88
2023/01/13 00:53:48;;;;;;;3.42;1.02;;;26.60;99.90;;;;;;5078295;28;20219;-87
2023/01/13 00:56:21;;;;;;;3.92;1.08;;;26.60;99.90;;;;;;5081988;28;20216;-89
2023/01/13 00:58:52;;;;;;;3.95;1.40;;;26.70;99.90;;;;;;5079845;28;20218;-87
2023/01/13 01:01:27;;;;;;;4.50;1.15;;;26.80;99.90;;;;;;5083699;28;20222;-87
2023/01/13 01:03:58;;;;;;;3.72;0.95;;;26.80;99.90;;;;;;5082257;28;20237;-87
2023/01/13 01:06:30;;;;;;;3.58;1.00;;;26.80;99.90;;;;;;5078508;28;20307;-85
2023/01/13 01:09:03;;;;;;;3.00;1.10;;;27.00;99.90;;;;;;5083321;28;20220;-86
2023/01/13 01:11:34;;;;;;;6.00;1.00;;;27.10;99.90;;;;;;5078346;28;20314;-87
2023/01/13 01:14:09;;;;;;;4.18;1.00;;;27.10;99.90;;;;;;5080697;28;20226;-90
2023/01/13 01:16:42;;;;;;;4.95;0.93;;;27.10;99.90;;;;;;5082337;28;20240;-80
2023/01/13 01:19:14;;;;;;;3.72;1.00;;;27.00;99.90;;;;;;5082338;28;20194;-90
2023/01/13 01:21:47;;;;;;;6.50;1.05;;;26.90;99.90;;;;;;5090983;28;20195;-91
2023/01/13 01:24:19;;;;;;;3.00;1.15;;;27.00;99.90;;;;;;5107359;28;20195;-92
2023/01/13 01:26:50;;;;;;;6.68;1.17;;;27.10;99.90;;;;;;5085227;28;20274;-90
2023/01/13 01:29:28;;;;;;;6.07;1.10;;;27.20;99.90;;;;;;5086495;28;20203;-91
2023/01/13 01:32:05;;;;;;;5.07;1.27;;;27.20;99.90;;;;;;5096349;28;20271;-92
2023/01/13 01:34:36;;;;;;;4.40;1.00;;;27.30;99.90;;;;;;5081992;28;20231;-86
2023/01/13 01:37:07;;;;;;;3.67;1.00;;;27.30;99.90;;;;;;5080402;28;20251;-88
2023/01/13 01:39:38;;;;;;;6.32;1.67;;;27.40;99.90;;;;;;5087986;28;20283;-89
2023/01/13 01:45:16;;;;;;;5.20;1.15;;;27.30;99.90;;;;;;5080242;28;20620;-87
2023/01/13 01:47:54;;;;;;;3.25;0.98;;;27.40;99.90;;;;;;5080516;28;20184;-89
2023/01/13 01:50:25;;;;;;;3.38;0.90;;;27.50;99.90;;;;;;5079247;28;20701;-89
2023/01/13 01:53:02;;;;;;;6.43;1.30;;;27.60;99.90;;;;;;5082964;28;20746;-88
2023/01/13 01:55:36;;;;;;;2.30;1.08;;;27.50;99.90;;;;;;5079851;28;20287;-89
2023/01/13 01:58:15;;;;;;;4.55;1.20;;;27.50;99.90;;;;;;5080832;28;20214;-87
2023/01/13 02:00:46;;;;;;;4.25;1.20;;;27.60;99.90;;;;;;5081870;28;20646;-87
2023/01/13 02:03:19;;;;;;;2.88;1.17;;;27.70;99.90;;;;;;5087579;28;20283;-87
2023/01/13 02:05:51;;;;;;;4.82;1.30;;;27.70;99.90;;;;;;5084124;28;20233;-89
2023/01/13 02:08:27;;;;;;;4.32;1.10;;;27.80;99.90;;;;;;5079808;28;20679;-88
2023/01/13 02:10:58;;;;;;;5.50;1.25;;;27.80;99.90;;;;;;5081333;28;20214;-88
2023/01/13 02:13:29;;;;;;;3.67;1.10;;;27.90;99.90;;;;;;5083140;28;20202;-88
2023/01/13 02:16:10;;;;;;;2.53;1.10;;;28.10;99.90;;;;;;5084401;28;20196;-87
2023/01/13 02:18:55;;;;;;;4.75;1.05;;;28.10;99.90;;;;;;5082448;28;20318;-85
2023/01/13 02:21:54;;;;;;;3.05;1.20;;;28.10;99.90;;;;;;5077147;28;20206;-85
2023/01/13 02:24:55;;;;;;;6.22;1.20;;;28.10;99.90;;;;;;5083888;28;20243;-86
2023/01/13 02:27:49;;;;;;;2.15;1.10;;;28.00;99.90;;;;;;5074665;28;20868;-90
2023/01/13 02:33:34;;;;;;;4.00;1.40;;;27.80;99.90;;;;;;5074919;28;20206;-86
2023/01/13 02:36:11;;;;;;;2.80;1.10;;;27.70;99.90;;;;;;5077753;28;20216;-87
2023/01/13 02:38:52;;;;;;;4.05;1.05;;;27.70;99.90;;;;;;5078236;28;20634;-87
2023/01/13 02:44:30;;;;;;;3.63;1.45;;;27.60;99.90;;;;;;5088183;28;20222;-88
2023/01/13 02:47:11;;;;;;;3.88;1.40;;;27.50;99.90;;;;;;5089147;28;20616;-84
2023/01/13 02:49:46;;;;;;;4.38;1.27;;;27.50;99.90;;;;;;5082378;28;20295;-85
2023/01/13 02:52:23;;;;;;;3.08;1.10;;;27.60;99.90;;;;;;5084022;28;20210;-85
2023/01/13 02:54:59;;;;;;;1.90;0.85;;;27.60;99.90;;;;;;5077016;28;20569;-86
2023/01/13 02:57:36;;;;;;;5.68;1.10;;;27.60;99.90;;;;;;5078939;28;21766;-88
2023/01/13 03:00:10;;;;;;;2.10;0.90;;;27.70;99.90;;;;;;5082923;28;20193;-86
2023/01/13 03:02:43;;;;;;;2.92;1.20;;;27.60;99.90;;;;;;5081203;28;20298;-85
2023/01/13 03:05:18;;;;;;;6.60;1.48;;;27.70;99.90;;;;;;5082271;28;20286;-85
2023/01/13 03:08:14;;;;;;;4.70;1.30;;;27.60;99.90;;;;;;5081902;28;20219;-86
2023/01/13 03:11:04;;;;;;;4.22;1.15;;;27.50;99.90;;;;;;5084032;28;20264;-86
2023/01/13 03:13:58;;;;;;;6.40;1.30;;;27.50;99.90;;;;;;5080321;28;20203;-86
2023/01/13 03:16:41;;;;;;;8.20;1.30;;;27.40;99.90;;;;;;5078381;28;20212;-88
2023/01/13 03:19:35;;;;;;;4.50;1.08;;;27.40;99.90;;;;;;5081319;28;20326;-85
2023/01/13 03:22:15;;;;;;;3.53;1.00;;;27.50;99.90;;;;;;5089637;28;20227;-88
2023/01/13 03:24:51;;;;;;;3.40;1.00;;;27.50;99.90;;;;;;5091281;28;20195;-88
2023/01/13 03:27:29;;;;;;;3.55;1.00;;;27.50;99.90;;;;;;5084168;28;20321;-86
2023/01/13 03:30:04;;;;;;;5.50;1.10;;;27.50;99.90;;;;;;5083907;28;20865;-86
2023/01/13 03:32:38;;;;;;;4.50;1.20;;;27.50;99.90;;;;;;5084437;28;20292;-88
2023/01/13 03:35:17;;;;;;;4.97;1.10;;;27.40;99.90;;;;;;5079208;28;20207;-87
2023/01/13 03:37:52;;;;;;;6.20;0.93;;;27.40;99.90;;;;;;5084681;28;20540;-86
2023/01/13 03:40:27;;;;;;;3.25;0.90;;;27.40;99.90;;;;;;5083462;28;20522;-86
2023/01/13 03:45:57;;;;;;;4.78;1.00;;;27.50;99.90;;;;;;5078926;28;20325;-87
2023/01/13 03:48:30;;;;;;;3.08;1.00;;;27.60;99.90;;;;;;5083637;28;20206;-86
2023/01/13 03:51:09;;;;;;;4.40;1.10;;;27.60;99.90;;;;;;5083245;28;20248;-87
2023/01/13 03:53:47;;;;;;;5.10;1.00;;;27.60;99.90;;;;;;5083123;28;20208;-86
2023/01/13 03:56:24;;;;;;;4.15;0.90;;;27.80;99.90;;;;;;5082066;28;20207;-86
2023/01/13 03:58:56;;;;;;;6.65;1.30;;;27.90;99.90;;;;;;5081218;28;20196;-88
2023/01/13 04:01:31;;;;;;;3.88;1.00;;;28.10;99.90;;;;;;5079421;28;20280;-88
2023/01/13 04:04:07;;;;;;;4.00;1.20;;;28.20;99.90;;;;;;5084952;28;20211;-87
2023/01/13 04:06:44;;;;;;;3.17;1.00;;;28.10;99.90;;;;;;5085327;28;20221;-88
2023/01/13 04:09:33;;;;;;;4.10;1.02;;;28.00;99.90;;;;;;5082248;28;20234;-89
2023/01/13 04:12:10;;;;;;;4.40;0.90;;;28.00;99.90;;;;;;5085946;28;20608;-87
2023/01/13 04:14:42;;;;;;;4.18;1.13;;;28.00;99.90;;;;;;5077234;28;20192;-88
2023/01/13 04:17:13;;;;;;;2.83;1.00;;;28.00;99.90;;;;;;5074109;28;20192;-86
2023/01/13 04:19:47;;;;;;;5.80;1.20;;;28.00;99.90;;;;;;5072177;28;20212;-87
2023/01/13 04:22:21;;;;;;;3.72;1.17;;;28.10;99.90;;;;;;5090807;28;20230;-86
2023/01/13 04:24:52;;;;;;;4.93;1.00;;;28.10;99.90;;;;;;5104723;28;20234;-87
2023/01/13 04:27:23;;;;;;;3.35;1.00;;;28.10;99.90;;;;;;5098881;28;20278;-86
2023/01/13 04:29:56;;;;;;;4.82;0.93;;;28.00;99.90;;;;;;5083105;28;20247;-86
2023/01/13 04:32:27;;;;;;;1.80;0.80;;;27.90;99.90;;;;;;5098311;28;20250;-87
2023/01/13 04:34:58;;;;;;;5.13;1.20;;;27.80;99.90;;;;;;5083681;28;20195;-87
2023/01/13 04:37:31;;;;;;;2.03;0.80;;;27.60;99.90;;;;;;5086062;28;20290;-89
2023/01/13 04:40:02;;;;;;;3.92;0.93;;;27.50;99.90;;;;;;5088796;28;21138;-88
2023/01/13 04:42:33;;;;;;;2.92;1.10;;;27.50;99.90;;;;;;5089486;28;20239;-86
2023/01/13 04:45:03;;;;;;;3.67;1.00;;;27.30;99.90;;;;;;5087497;28;20219;-87
2023/01/13 04:47:35;;;;;;;4.07;1.23;;;27.40;99.90;;;;;;5088450;28;20274;-86
2023/01/13 04:50:06;;;;;;;2.70;0.98;;;27.40;99.90;;;;;;5108567;28;20629;-86
2023/01/13 04:52:40;;;;;;;4.55;1.05;;;27.40;99.90;;;;;;5096635;28;20665;-87
2023/01/13 04:55:11;;;;;;;2.80;0.95;;;27.40;99.90;;;;;;5086896;28;20278;-87
2023/01/13 04:57:42;;;;;;;3.85;1.10;;;27.40;99.90;;;;;;5087354;28;20305;-86
2023/01/13 05:00:17;;;;;;;2.50;0.98;;;27.50;99.90;;;;;;5097371;28;20200;-87
2023/01/13 05:02:50;;;;;;;4.65;0.88;;;27.50;99.90;;;;;;5104463;28;20222;-86
2023/01/13 05:05:21;;;;;;;5.70;1.10;;;27.50;99.90;;;;;;5091946;28;20651;-87
2023/01/13 05:07:55;;;;;;;4.22;0.77;;;27.50;99.90;;;;;;5093285;28;20201;-86
2023/01/13 05:10:26;;;;;;;3.05;0.90;;;27.60;99.90;;;;;;5086485;28;20213;-86
2023/01/13 05:18:33;;;;;;;5.90;1.27;;;27.50;99.90;;;;;;5090131;28;20218;-88
2023/01/13 05:21:04;;;;;;;2.85;0.80;;;27.60;99.90;;;;;;5095085;28;20191;-88
2023/01/13 05:26:50;;;;;;;5.47;1.23;;;27.60;99.90;;;;;;5103443;28;20290;-88
2023/01/13 05:29:21;;;;;;;4.93;1.00;;;27.80;99.90;;;;;;5118610;28;20282;-87
2023/01/13 05:31:52;;;;;;;4.28;1.10;;;28.10;99.90;;;;;;5108254;28;20637;-87
2023/01/13 05:34:23;;;;;;;4.25;0.90;;;28.40;99.90;;;;;;5093592;28;20294;-87
2023/01/13 05:36:54;;;;;;;4.22;1.00;;;28.90;99.90;;;;;;5085133;28;20677;-87
2023/01/13 05:43:18;;;;;;;2.13;0.90;;;29.40;99.90;;;;;;5093406;28;20202;-86
2023/01/13 05:45:06;;;;;;;2.55;0.77;;;29.30;99.90;;;;;;5092944;28;20197;-90
2023/01/13 05:47:39;;;;;;;2.92;0.82;;;29.20;99.90;;;;;;5093451;28;20293;-87
2023/01/13 05:50:12;;;;;;;2.85;0.85;;;29.10;99.90;;;;;;5103611;28;20190;-92
2023/01/13 05:52:44;;;;;;;2.85;0.82;;;28.80;99.90;;;;;;5081119;28;20259;-91
2023/01/13 05:55:16;;;;;;;5.22;1.00;;;28.60;99.90;;;;;;5079098;28;20264;-93
2023/01/13 05:57:48;;;;;;;6.70;1.33;;;28.40;99.90;;;;;;5093830;28;20197;-87
2023/01/13 06:00:19;;;;;;;2.55;0.98;;;28.10;99.90;;;;;;5085765;28;20209;-88
2023/01/13 06:02:50;;;;;;;3.72;1.10;;;27.70;99.90;;;;;;5095833;28;20285;-92
2023/01/13 06:05:22;;;;;;;4.68;1.13;;;27.70;99.90;;;;;;5108927;28;20276;-90
2023/01/13 06:07:53;;;;;;;4.32;0.98;;;27.40;99.90;;;;;;5087941;28;20199;-89
2023/01/13 06:10:26;;;;;;;3.65;1.20;;;27.30;99.90;;;;;;5081436;28;20204;-88
2023/01/13 06:13:01;;;;;;;3.00;1.00;;;27.20;99.90;;;;;;5098935;28;20225;-88
2023/01/13 06:15:32;;;;;;;6.30;1.20;;;27.20;99.90;;;;;;5090681;28;20282;-86
2023/01/13 06:18:06;;;;;;;3.53;1.00;;;27.10;99.90;;;;;;5087810;28;20247;-87
2023/01/13 06:20:37;;;;;;;4.20;0.88;;;27.10;99.90;;;;;;5088817;28;20573;-88
2023/01/13 06:23:12;;;;;;;3.92;0.90;;;27.10;99.90;;;;;;5094813;28;20191;-89
2023/01/13 06:25:49;;;;;;;6.00;0.88;;;27.10;99.90;;;;;;5083504;28;20195;-91
2023/01/13 06:28:23;;;;;;;4.55;0.93;;;27.10;99.90;;;;;;5107172;28;20801;-89
2023/01/13 06:30:59;;;;;;;2.72;1.02;;;27.00;99.90;;;;;;5097123;28;20199;-92
2023/01/13 06:33:34;;;;;;;3.13;1.10;;;27.00;99.90;;;;;;5083030;28;20221;-88
2023/01/13 06:36:09;;;;;;;4.18;0.93;;;26.80;99.90;;;;;;5085817;28;20191;-89
2023/01/13 06:38:48;;;;;;;3.90;1.10;;;26.80;99.90;;;;;;5082604;28;20187;-88
2023/01/13 06:43:13;;;;;;;3.65;0.82;;;26.80;99.90;;;;;;5085009;28;20674;-90
2023/01/13 06:44:15;;;;;;;2.35;0.90;;;26.70;99.90;;;;;;5089745;28;20318;-93
2023/01/13 06:46:46;;;;;;;5.60;1.25;;;26.80;99.90;;;;;;5079408;28;20282;-89
2023/01/13 06:49:17;;;;;;;3.17;1.08;;;26.90;99.90;;;;;;5097240;28;20199;-90
2023/01/13 06:51:48;;;;;;;4.88;1.10;;;27.00;99.90;;;;;;5090304;28;20226;-91
2023/01/13 06:54:20;;;;;;;6.43;1.42;;;27.10;99.90;;;;;;5087985;28;20184;-90
2023/01/13 06:56:54;;;;;;;3.03;0.93;;;27.10;99.90;;;;;;5081427;28;20215;-90
2023/01/13 06:59:25;;;;;;;5.28;1.00;;;26.90;99.90;;;;;;5089076;28;20223;-92
2023/01/13 07:01:59;;;;;;;3.65;1.02;;;26.80;99.90;;;;;;5091842;28;20195;-90
2023/01/13 07:04:32;;;;;;;2.78;0.80;;;26.70;99.90;;;;;;5085563;28;20238;-90
2023/01/13 07:07:03;;;;;;;3.42;0.95;;;26.60;99.90;;;;;;5087145;28;20198;-88
2023/01/13 07:09:35;;;;;;;3.28;1.20;;;26.60;99.90;;;;;;5095529;28;20203;-88
2023/01/13 07:12:09;;;;;;;4.90;1.17;;;26.60;99.90;;;;;;5102199;28;20237;-91
2023/01/13 07:17:26;;;;;;;4.30;1.42;;;26.40;99.90;;;;;;5103729;28;20229;-92
2023/01/13 07:19:57;;;;;;;3.38;1.10;;;26.40;99.90;;;;;;5089642;28;20196;-90
2023/01/13 07:22:29;;;;;;;3.40;1.10;;;26.40;99.90;;;;;;5099520;28;20223;-92
2023/01/13 07:25:03;;;;;;;3.08;1.23;;;26.30;99.90;;;;;;5090305;28;20199;-91
2023/01/13 07:27:36;;;;;;;6.30;1.38;;;26.30;99.90;;;;;;5081113;28;20219;-90
2023/01/13 07:30:08;;;;;;;5.40;1.25;;;26.20;99.90;;;;;;5094711;28;20247;-89
2023/01/13 07:32:45;;;;;;;4.00;1.10;;;26.10;99.90;;;;;;5100167;28;20617;-92
2023/01/13 07:35:20;;;;;;;7.72;1.10;;;26.00;99.90;;;;;;5086202;28;20229;-91
2023/01/13 07:37:51;;;;;;;6.32;1.42;;;26.00;99.90;;;;;;5093406;28;20302;-91
2023/01/13 07:40:22;;;;;;;4.18;1.23;;;26.00;99.90;;;;;;5098881;28;20280;-92
2023/01/13 07:45:48;;;;;;;5.22;1.20;;;25.90;99.90;;;;;;5086471;28;20211;-91
2023/01/13 07:48:19;;;;;;;7.00;1.23;;;25.90;99.90;;;;;;5078019;28;20215;-93
2023/01/13 07:50:51;;;;;;;5.20;1.10;;;25.90;99.90;;;;;;5094379;28;20654;-93
2023/01/13 07:53:23;;;;;;;6.10;1.30;;;25.90;99.90;;;;;;5074849;28;20222;-95
2023/01/13 07:55:59;;;;;;;5.45;1.27;;;25.80;99.90;;;;;;5097474;28;20206;-94
2023/01/13 07:58:34;;;;;;;6.15;1.45;;;25.80;99.90;;;;;;5083988;28;21065;-91
2023/01/13 08:01:10;;;;;;;4.85;1.20;;;25.80;99.90;;;;;;5086647;28;20202;-93
2023/01/13 08:03:45;;;;;;;2.92;1.00;;;25.70;99.90;;;;;;5083434;28;20191;-92
2023/01/13 08:06:19;;;;;;;3.75;1.13;;;25.70;99.90;;;;;;5091189;28;20435;-91
2023/01/13 08:08:50;;;;;;;5.35;1.33;;;25.70;99.90;;;;;;5086364;28;20203;-92
2023/01/13 08:11:21;;;;;;;7.00;1.63;;;25.70;99.90;;;;;;5089807;28;20254;-93
2023/01/13 08:13:58;;;;;;;5.07;1.63;;;25.50;99.90;;;;;;5091505;28;20221;-92
2023/01/13 08:16:30;;;;;;;8.02;1.40;;;25.50;99.90;;;;;;5086559;28;20226;-91
2023/01/13 08:19:02;;;;;;;5.45;1.35;;;25.50;99.90;;;;;;5090768;28;20193;-93
2023/01/13 08:21:33;;;;;;;4.78;1.30;;;25.50;99.90;;;;;;5085535;28;20746;-92
2023/01/13 08:24:03;;;;;;;5.60;1.10;;;25.50;99.90;;;;;;5084281;28;20206;-92
2023/01/13 08:26:34;;;;;;;3.25;1.10;;;25.50;99.90;;;;;;5094155;28;20201;-93
2023/01/13 08:29:07;;;;;;;3.40;0.98;;;25.50;99.90;;;;;;5092208;28;20195;-92
2023/01/13 08:31:38;;;;;;;7.03;1.55;;;25.50;99.90;;;;;;5086772;28;20221;-93
2023/01/13 08:34:09;;;;;;;8.10;1.58;;;25.50;99.90;;;;;;5106131;28;20230;-92
2023/01/13 08:36:40;;;;;;;4.13;1.20;;;25.50;99.90;;;;;;5099920;28;20250;-93
2023/01/13 08:39:11;;;;;;;5.75;1.60;;;25.40;99.90;;;;;;5096490;28;20230;-90
2023/01/13 08:41:57;;;;;;;5.53;1.30;;;25.40;99.90;;;;;;5095449;28;20226;-90
2023/01/13 08:44:32;;;;;;;5.55;1.40;;;25.40;99.90;;;;;;5086036;28;20231;-91
2023/01/13 08:47:03;;;;;;;5.88;1.40;;;25.40;99.90;;;;;;5099589;28;20202;-90
2023/01/13 08:49:34;;;;;;;5.00;1.30;;;25.30;99.90;;;;;;5090379;28;20192;-92
2023/01/13 08:52:05;;;;;;;5.95;1.23;;;25.20;99.90;;;;;;5087008;28;20579;-91
2023/01/13 08:54:36;;;;;;;8.13;1.60;;;25.20;99.90;;;;;;5106460;28;20191;-90
2023/01/13 08:57:08;;;;;;;4.07;1.20;;;25.20;99.90;;;;;;5091132;28;20618;-91
2023/01/13 08:59:42;;;;;;;4.38;1.30;;;25.20;99.90;;;;;;5097038;28;20531;-91
2023/01/13 09:02:21;;;;;;;6.22;1.60;;;25.20;99.90;;;;;;5090741;28;20191;-90
2023/01/13 09:04:55;;;;;;;8.05;1.52;;;25.20;99.90;;;;;;5093748;28;20568;-90
2023/01/13 09:07:26;;;;;;;6.80;1.30;;;25.10;99.90;;;;;;5094833;28;20235;-91
2023/01/13 09:09:57;;;;;;;5.63;1.27;;;25.10;99.90;;;;;;5099556;28;20198;-90
2023/01/13 09:15:18;;;;;;;8.40;1.88;;;25.00;99.90;;;;;;5101589;28;20251;-90
2023/01/13 09:17:50;;;;;;;6.40;1.55;;;25.00;99.90;;;;;;5110778;28;20202;-90
2023/01/13 09:20:23;;;;;;;7.70;1.65;;;25.00;99.90;;;;;;5089338;28;20195;-92
2023/01/13 09:22:54;;;;;;;5.88;1.30;;;25.00;99.90;;;;;;5098343;28;20290;-89
2023/01/13 09:25:26;;;;;;;8.10;1.60;;;25.00;99.90;;;;;;5095809;28;20219;-89
2023/01/13 09:27:56;;;;;;;5.20;1.27;;;25.00;99.90;;;;;;5096646;28;20332;-88
2023/01/13 09:30:33;;;;;;;7.15;1.67;;;24.90;99.90;;;;;;5104251;28;20191;-90
2023/01/13 09:35:59;;;;;;;10.10;1.73;;;24.90;99.90;;;;;;5107933;28;20232;-89
2023/01/13 09:38:33;;;;;;;7.28;1.30;;;24.90;99.90;;;;;;5116729;28;20218;-90
2023/01/13 09:43:52;;;;;;;8.98;1.50;;;24.90;99.90;;;;;;5089434;28;20196;-88
2023/01/13 09:44:01;;;;;;;4.50;1.30;;;24.90;99.90;;;;;;5045618;28;20204;-89
2023/01/13 09:46:46;;;;;;;3.53;1.08;;;24.80;99.90;;;;;;5058558;28;20193;-85
2023/01/13 09:49:21;;;;;;;8.15;1.40;;;24.80;99.90;;;;;;5056416;28;20655;-86
2023/01/13 09:51:59;;;;;;;5.65;1.30;;;24.80;99.90;;;;;;5056057;28;20200;-88
2023/01/13 09:54:36;;;;;;;6.50;1.20;;;24.80;99.90;;;;;;5032850;28;20307;-86
2023/01/13 09:57:13;;;;;;;5.20;1.42;;;24.80;99.90;;;;;;5057159;28;20220;-87
2023/01/13 09:59:47;;;;;;;4.38;1.10;;;24.70;99.90;;;;;;5058477;28;20268;-88
2023/01/13 10:02:48;;;;;;;7.68;1.50;;;24.70;99.90;;;;;;5060620;28;20205;-87
2023/01/13 10:05:31;;;;;;;4.22;1.10;;;24.70;99.90;;;;;;5054131;28;20276;-87
2023/01/13 10:08:07;;;;;;;5.75;1.30;;;24.60;99.90;;;;;;5047115;28;20202;-87
2023/01/13 10:10:43;;;;;;;8.73;1.38;;;24.70;99.90;;;;;;5051689;28;20230;-89
2023/01/13 10:13:18;;;;;;;3.00;1.20;;;24.70;99.90;;;;;;5057449;28;20215;-88
2023/01/13 10:16:11;;;;;;;4.00;1.15;;;24.70;99.90;;;;;;5052988;28;20260;-88
2023/01/13 10:18:58;;;;;;;7.13;1.60;;;24.70;99.90;;;;;;5046048;28;20204;-87
2023/01/13 10:21:54;;;;;;;2.97;1.35;;;24.70;99.90;;;;;;5054199;28;20892;-89
2023/01/13 10:24:40;;;;;;;5.93;1.40;;;24.60;99.90;;;;;;5057934;28;20314;-88
2023/01/13 10:27:20;;;;;;;4.82;1.17;;;24.60;99.90;;;;;;5056094;28;20586;-88
2023/01/13 10:29:52;;;;;;;4.57;1.02;;;24.60;99.90;;;;;;5055208;28;20188;-89
2023/01/13 10:32:23;;;;;;;5.15;1.00;;;24.60;99.90;;;;;;5054448;28;20201;-88
2023/01/13 10:35:01;;;;;;;5.20;1.48;;;24.60;99.90;;;;;;5058921;28;20196;-87
2023/01/13 10:37:32;;;;;;;6.50;1.50;;;24.50;99.90;;;;;;5057816;28;20216;-88
2023/01/13 10:40:10;;;;;;;6.35;1.17;;;24.60;99.90;;;;;;5055138;28;20234;-89
2023/01/13 10:42:44;;;;;;;5.82;1.25;;;24.60;99.90;;;;;;5062829;28;20228;-88
2023/01/13 10:45:26;;;;;;;4.75;1.08;;;24.60;99.90;;;;;;5063293;28;20230;-87
2023/01/13 10:48:13;;;;;;;4.30;1.08;;;24.60;99.90;;;;;;5062329;28;20231;-88
2023/01/13 10:50:48;;;;;;;4.72;1.30;;;24.50;99.90;;;;;;5062632;28;20192;-87
2023/01/13 10:53:27;;;;;;;3.63;1.10;;;24.50;99.90;;;;;;5072691;28;20207;-88
2023/01/13 10:56:03;;;;;;;5.22;1.17;;;24.50;99.90;;;;;;5053377;28;20223;-87
2023/01/13 10:58:34;;;;;;;4.00;1.20;;;24.50;99.90;;;;;;5060710;28;20196;-88
2023/01/13 11:01:08;;;;;;;6.90;1.40;;;24.50;99.90;;;;;;5070454;28;20242;-86
2023/01/13 11:03:43;;;;;;;3.92;0.98;;;24.50;99.90;;;;;;5071043;28;20196;-87
2023/01/13 11:06:24;;;;;;;6.10;1.42;;;24.50;99.90;;;;;;5072548;28;20188;-87
2023/01/13 11:08:57;;;;;;;3.08;0.90;;;24.50;99.90;;;;;;5065656;28;20191;-87
2023/01/13 11:11:40;;;;;;;7.15;1.40;;;24.50;99.90;;;;;;5071447;28;20205;-88
2023/01/13 11:17:34;;;;;;;3.65;1.00;;;24.50;99.90;;;;;;5060529;28;20195;-86
2023/01/13 11:20:17;;;;;;;8.23;1.40;;;24.40;99.90;;;;;;5068887;28;20221;-89
2023/01/13 11:22:54;;;;;;;6.05;1.40;;;24.40;99.90;;;;;;5073878;28;20192;-88
2023/01/13 11:25:40;;;;;;;5.18;1.30;;;24.40;99.90;;;;;;5061042;28;20219;-88
2023/01/13 11:28:27;;;;;;;5.60;1.40;;;24.40;99.90;;;;;;5068311;28;20310;-88
2023/01/13 11:31:04;;;;;;;7.50;1.48;;;24.30;99.90;;;;;;5059336;28;20216;-88
2023/01/13 11:33:42;;;;;;;6.40;1.30;;;24.30;99.90;;;;;;5063004;28;20218;-89
2023/01/13 11:36:19;;;;;;;3.63;1.08;;;24.30;99.90;;;;;;5059868;28;20192;-89
2023/01/13 11:38:54;;;;;;;4.55;1.13;;;24.30;99.90;;;;;;5079226;28;20224;-89
2023/01/13 11:41:42;;;;;;;6.35;1.20;;;24.30;99.90;;;;;;5051791;28;20192;-88
2023/01/13 11:44:23;;;;;;;6.22;1.35;;;24.30;99.90;;;;;;5067138;28;20196;-89
2023/01/13 11:46:57;;;;;;;5.32;1.20;;;24.30;99.90;;;;;;5052718;28;20195;-89
2023/01/13 11:49:31;;;;;;;5.07;1.15;;;24.30;99.90;;;;;;5055325;28;20698;-89
2023/01/13 11:52:12;;;;;;;2.88;1.00;;;24.30;99.90;;;;;;5056705;28;21076;-89
2023/01/13 11:55:07;;;;;;;5.90;1.27;;;24.20;99.90;;;;;;5056975;28;20208;-88
2023/01/13 11:57:57;;;;;;;7.10;1.30;;;24.20;99.90;;;;;;5048000;28;20205;-88
2023/01/13 12:00:41;;;;;;;5.35;1.08;;;24.10;99.90;;;;;;5056500;28;20284;-88
2023/01/13 12:03:28;;;;;;;6.30;1.52;;;24.10;99.90;;;;;;5063547;28;20199;-88
2023/01/13 12:06:21;;;;;;;5.40;1.35;;;24.10;99.90;;;;;;5066432;28;20288;-88
2023/01/13 12:09:29;;;;;;;5.10;1.30;;;24.10;99.90;;;;;;5069278;28;20677;-85
2023/01/13 12:12:26;;;;;;;5.60;1.35;;;24.20;99.90;;;;;;5063727;28;20675;-87
2023/01/13 12:15:26;;;;;;;7.18;1.10;;;24.20;99.90;;;;;;5054748;28;20213;-89
2023/01/13 12:18:21;;;;;;;5.80;1.38;;;24.20;99.90;;;;;;5082205;22;20230;-89
2023/01/13 12:21:15;;;;;;;5.55;1.55;;;24.10;99.90;;;;;;5069223;28;20654;-89
2023/01/13 12:23:55;;;;;;;7.10;1.73;;;24.10;99.90;;;;;;5076312;22;20243;-89
2023/01/13 12:26:30;;;;;;;6.80;1.27;;;24.10;99.90;;;;;;5059590;28;20710;-90
2023/01/13 12:29:07;;;;;;;5.13;1.20;;;24.10;99.90;;;;;;5066868;28;20203;-89
2023/01/13 12:31:59;;;;;;;7.78;1.13;;;24.10;99.90;;;;;;5060268;28;20251;-89
2023/01/13 12:34:40;;;;;;;4.88;1.10;;;24.10;99.90;;;;;;5059567;28;20627;-90
2023/01/13 12:37:18;;;;;;;3.65;0.80;;;24.10;99.90;;;;;;5072592;28;20260;-87
2023/01/13 12:40:05;;;;;;;5.38;1.20;;;24.10;99.90;;;;;;5069385;28;20572;-88
2023/01/13 12:45:34;;;;;;;3.75;1.08;;;24.10;99.90;;;;;;5078398;28;20198;-91
2023/01/13 12:48:06;;;;;;;5.53;1.20;;;24.10;99.90;;;;;;5066346;28;20203;-89
2023/01/13 12:50:45;;;;;;;4.47;1.25;;;24.10;99.90;;;;;;5059098;28;20568;-88
2023/01/13 12:53:37;;;;;;;4.07;1.50;;;24.10;99.90;;;;;;5065788;28;20249;-89
2023/01/13 12:56:43;;;;;;;6.80;1.30;;;24.10;99.90;;;;;;5076178;28;20189;-89
2023/01/13 12:59:49;;;;;;;5.50;1.33;;;24.10;99.90;;;;;;4968224;28;20312;-89
2023/01/13 13:02:36;;;;;;;3.90;1.13;;;24.00;99.90;;;;;;5071445;28;20275;-87
2023/01/13 13:05:48;;;;;;;5.60;1.30;;;24.10;99.90;;;;;;5069736;28;20207;-91
2023/01/13 13:08:40;;;;;;;8.55;1.55;;;24.00;99.90;;;;;;5064235;28;20204;-88
2023/01/13 13:15:06;;;;;;;7.43;1.33;;;24.10;99.90;;;;;;5060856;28;20277;-90
2023/01/13 13:18:22;;;;;;;6.35;1.55;;;24.10;99.90;;;;;;5052480;28;20220;-89
2023/01/13 13:21:11;;;;;;;7.65;1.65;;;24.10;99.90;;;;;;5065656;28;20220;-88
2023/01/13 13:24:11;;;;;;;5.00;1.20;;;24.10;99.90;;;;;;5068578;28;20275;-88
2023/01/13 13:26:45;;;;;;;7.45;1.30;;;24.10;99.90;;;;;;5070568;28;20299;-90
2023/01/13 13:29:45;;;;;;;6.03;1.20;;;24.10;99.90;;;;;;5066399;28;20292;-89
2023/01/13 13:32:55;;;;;;;5.65;1.42;;;24.10;99.90;;;;;;5073210;28;20180;-89
2023/01/13 13:35:50;;;;;;;8.70;1.50;;;24.10;99.90;;;;;;5070677;28;20263;-88
2023/01/13 13:47:06;;;;;;;5.70;1.30;;;24.00;99.90;;;;;;5059387;28;20286;-88
2023/01/13 13:49:44;;;;;;;10.73;1.75;;;24.00;99.90;;;;;;5066494;28;20192;-87
2023/01/13 13:52:25;;;;;;;3.92;1.20;;;24.00;99.90;;;;;;5064577;28;20188;-88
2023/01/13 13:54:58;;;;;;;7.65;1.83;;;24.00;99.90;;;;;;5072279;28;20211;-88
2023/01/13 13:57:34;;;;;;;4.22;1.20;;;24.00;99.90;;;;;;5072902;28;20204;-89
2023/01/13 14:00:25;;;;;;;5.57;1.20;;;24.00;99.90;;;;;;5073756;28;20192;-89
2023/01/13 14:02:59;;;;;;;5.40;1.20;;;23.90;99.90;;;;;;5071211;28;20199;-90
2023/01/13 14:05:31;;;;;;;6.15;1.30;;;23.90;99.90;;;;;;5073403;28;20654;-89
2023/01/13 14:08:11;;;;;;;5.60;1.40;;;23.90;99.90;;;;;;5063959;28;20387;-89
2023/01/13 14:10:44;;;;;;;3.85;1.05;;;23.90;99.90;;;;;;5073519;28;20635;-89
2023/01/13 14:13:20;;;;;;;6.53;1.50;;;23.90;99.90;;;;;;5061269;28;20207;-89
2023/01/13 14:15:57;;;;;;;3.22;1.00;;;23.90;99.90;;;;;;5071176;28;20200;-90
2023/01/13 14:18:29;;;;;;;7.15;1.42;;;23.90;99.90;;;;;;5059093;28;20202;-89
2023/01/13 14:21:04;;;;;;;2.95;0.90;;;23.90;99.90;;;;;;5057821;28;20255;-89
2023/01/13 14:23:37;;;;;;;5.07;1.20;;;23.90;99.90;;;;;;5059584;28;20241;-90
2023/01/13 14:26:11;;;;;;;5.88;1.40;;;23.90;99.90;;;;;;5070365;28;20188;-89
2023/01/13 14:28:43;;;;;;;5.15;1.13;;;23.90;99.90;;;;;;5052731;28;20279;-89
2023/01/13 14:31:19;;;;;;;7.45;1.48;;;23.90;99.90;;;;;;5063761;28;20529;-90